Calera, AL

8:47 PM CDT on July 27, 2016 (GMT -0500)
Country Hills | | Change Station

Elev 512 ft 33.16 °N, 86.82 °W | Updated 36 seconds ago

Clear
Clear
78.6 °F
Feels Like 81 °F
N
7.3
Wind Variable Wind from South

Today
High -- | Low -- °F
--% Chance of Precip.
Yesterday
High -- | Low -- °F
Precip. -- in
Pressure 29.97 in
Visibility 10.0 miles
Clouds Clear
Heat Index 81 °F
Dew Point 72 °F
Humidity 81%
Rainfall 0.03 in
Snow Depth Not available.
5:57 AM 7:49 PM
Last Quarter, 37% visible
METAR KEET 280053Z AUTO 18006KT 10SM CLR 27/22 A2999 RMK AO2 SLP147 T02720222
Pressure 29.97 in
Visibility 10.0 miles
Clouds Clear
Heat Index 81 °F
Dew Point 72 °F
Humidity 81%
Rainfall 0.03 in
Snow Depth Not available.
5:57 AM 7:49 PM
Last Quarter, 37% visible
METAR KEET 280053Z AUTO 18006KT 10SM CLR 27/22 A2999 RMK AO2 SLP147 T02720222

10-Day Weather Forecast

Almanac

Astronomy

Jul. 27, 2016 Rise Set
Actual Time
Civil Twilight
Nautical Twilight
Astronomical Twilight
Moon
Length of Visible Light
Length of Day
Tomorrow will be .
, % of the Moon is Illuminated

Today's Extremes

State Highs State Lows

Community

WunderPhotos

Upload Photos

1,928,005 photos uploaded!

WunderBlog® & News

Nearby

Air Quality

  Air Quality AQ Index Pollutant
Not available.

Snow Depth

Station Depth Elevation

Earthquake Activity

City Distance Mag. Time & Date
Minimum magnitude displayed is 2.5.

Coastal Water Temperatures

Place Temperature

Stations

Nearby Weather Stations

Station Location Temp. Windchill Dew Point Humidity Wind Precip. Elev Updated Type
                   

Watches & Warnings

There are currently no watches in effect.